Skip Navigation LinksHome page > Weather > Current weather Skip Navigation Links

Current Weather

Chicago O'Hare Intl, Chicago

For information only: do not use for flight planning or navigation.
Latest weather
Observation time Monday, December 6, 2021 7:51 AM CST
Local time Monday, December 6, 2021 8:20 AM CST
Flight conditions Visual Meteorological Conditions
Winds
Wind direction West-Northwest (290°)
Wind speed 23 mph
Wind gusting to 33 mph
Peak wind speed 38 mph, 7:00 AM
Peak wind direction West (260°)
Visibility 10 mi.
Sky condition
Ceiling 4,700 ft. broken clouds
Cloud layer few clouds 3,400 ft.
Cloud layer broken clouds 4,700 ft.
Cloud layer overcast 5,500 ft.
Temperature 33°F
Dewpoint 20°F
Altimeter 29.82 in.Hg
Derived measurements
Relative humidity 58%
Wind chill 21°F
Density altitude -911 ft.
Sea-level pressure 29.84 in.Hg
Remarks
Automated weather observing station with precipitation discriminator.
METAR KORD 061351Z 29020G29KT 10SM FEW034 BKN047 OVC055 01/M07 A2982 RMK AO2 PK WND 26033/1300 SLP104 T00061067

Settings

Location code

InnerDrive.Weather 4.0.6770.0 Release CLR 4.0.30319.42000
Copyright ©2018 Inner Drive Technology. All rights reserved. Portions Copyright ©1986-2018 David Braverman.

Find weather

Site navigation


Skip Navigation Links

Place info

Page info

PayPal - The safer, easier way to pay online!

Return home.

Copyright ©2021 Inner Drive Technology. Purveyors of fine, hand-crafted computer software. Page printed 2021-12-06T14:20:18 UTC.